Time;durP1;ratioP1;P1;durP2;ratioP2;P2;SDS_P1;SDS_P2;PMS_P1;PMS_P2;Temp;Humidity;BMP_temperature;BMP_pressure;BME280_temperature;BME280_humidity;BME280_pressure;Samples;Min_cycle;Max_cycle;Signal;HPM_P1;HPM_P2
2024/01/26 00:02:59;;;;;;;2.42;1.42;;;;;;;8.89;67.18;100854.13;10476387;28;20033;-65
2024/01/26 00:08:02;;;;;;;2.10;1.27;;;;;;;8.93;66.90;100860.94;10461572;28;20053;-65
2024/01/26 00:13:04;;;;;;;2.65;1.23;;;;;;;9.04;66.72;100864.81;10458615;28;20139;-66
2024/01/26 00:18:06;;;;;;;1.88;1.30;;;;;;;9.09;66.51;100852.47;10482871;28;20564;-66
2024/01/26 00:23:08;;;;;;;2.75;1.20;;;;;;;9.11;66.21;100840.19;10476472;28;20048;-65
2024/01/26 00:28:11;;;;;;;2.85;1.35;;;;;;;9.07;66.12;100843.84;10476614;28;20044;-65
2024/01/26 00:33:13;;;;;;;2.50;1.40;;;;;;;8.91;66.12;100852.31;10485398;28;20507;-65
2024/01/26 00:38:15;;;;;;;3.83;1.88;;;;;;;8.70;66.69;100852.22;10485307;28;20044;-65
2024/01/26 00:43:17;;;;;;;4.10;2.03;;;;;;;8.63;66.89;100842.91;10482952;28;20752;-65
2024/01/26 00:48:20;;;;;;;5.13;2.08;;;;;;;8.57;66.90;100824.88;10464991;28;20052;-65
2024/01/26 00:53:22;;;;;;;5.68;2.22;;;;;;;8.61;66.79;100815.19;10465042;28;20052;-65
2024/01/26 00:58:24;;;;;;;4.45;2.40;;;;;;;8.71;66.64;100809.56;10482910;28;20554;-65
2024/01/26 01:03:26;;;;;;;4.90;2.47;;;;;;;8.72;66.41;100816.50;10481436;28;20056;-65
2024/01/26 01:08:28;;;;;;;4.75;1.90;;;;;;;8.53;66.69;100799.84;10486190;28;20052;-65
2024/01/26 01:13:31;;;;;;;2.53;1.42;;;;;;;8.37;67.28;100809.13;10482478;28;20088;-65
2024/01/26 01:18:33;;;;;;;5.47;2.60;;;;;;;8.19;67.55;100799.38;10461564;28;20148;-65
2024/01/26 01:23:36;;;;;;;7.60;2.90;;;;;;;8.11;67.64;100803.16;10479816;28;20545;-66
2024/01/26 01:28:38;;;;;;;6.82;2.80;;;;;;;8.05;67.80;100806.81;10481207;28;20051;-66
2024/01/26 01:33:40;;;;;;;6.32;2.80;;;;;;;8.01;67.81;100795.66;10480660;28;20482;-66
2024/01/26 01:38:42;;;;;;;7.07;3.55;;;;;;;8.02;67.71;100792.13;10478395;28;20086;-66
2024/01/26 01:43:53;;;;;;;5.75;2.72;;;;;;;8.10;68.03;100791.03;10481229;28;20097;-65
2024/01/26 01:48:55;;;;;;;9.88;3.40;;;;;;;8.08;67.64;100782.44;10480538;28;20488;-65
2024/01/26 01:53:58;;;;;;;5.70;2.92;;;;;;;8.11;67.70;100782.31;10485161;28;20155;-64
2024/01/26 01:59:01;;;;;;;7.35;2.90;;;;;;;8.15;67.36;100789.13;10485913;28;20058;-64
2024/01/26 02:04:04;;;;;;;5.90;2.55;;;;;;;8.02;67.18;100786.06;10485273;28;20045;-65
2024/01/26 02:09:06;;;;;;;6.40;2.70;;;;;;;8.02;67.25;100786.94;10482789;28;20052;-64
2024/01/26 02:14:08;;;;;;;5.50;2.85;;;;;;;8.12;67.15;100779.66;10479679;28;20048;-64
2024/01/26 02:19:14;;;;;;;5.68;3.20;;;;;;;8.15;67.17;100791.72;10468383;28;20037;-66
2024/01/26 02:24:17;;;;;;;5.60;2.75;;;;;;;8.16;67.09;100793.44;10482555;28;20117;-65
2024/01/26 02:29:19;;;;;;;9.30;3.00;;;;;;;7.98;67.30;100787.09;10447218;28;20037;-65
2024/01/26 02:34:21;;;;;;;6.25;3.03;;;;;;;8.06;67.26;100772.03;10481910;28;20045;-65
2024/01/26 02:39:23;;;;;;;5.70;2.63;;;;;;;8.20;67.12;100772.41;10481170;28;20115;-65
2024/01/26 02:44:25;;;;;;;10.40;3.72;;;;;;;8.28;66.99;100762.56;10478187;28;20123;-65
2024/01/26 02:49:28;;;;;;;9.65;3.85;;;;;;;8.24;66.82;100765.34;10460813;28;20119;-65
2024/01/26 02:54:31;;;;;;;5.38;2.85;;;;;;;8.12;67.08;100773.63;10478014;28;20059;-64
2024/01/26 02:59:33;;;;;;;9.32;3.10;;;;;;;8.02;67.32;100773.91;10477872;28;20052;-65
2024/01/26 03:04:35;;;;;;;6.75;3.50;;;;;;;8.08;67.32;100769.41;10477132;28;20047;-65
2024/01/26 03:09:37;;;;;;;7.82;3.25;;;;;;;8.22;67.14;100761.97;10476885;28;20143;-65
2024/01/26 03:14:39;;;;;;;8.25;3.35;;;;;;;8.28;67.03;100757.34;10477394;28;20040;-64
2024/01/26 03:19:42;;;;;;;7.63;3.00;;;;;;;8.35;66.78;100753.63;10459149;28;20396;-65
2024/01/26 03:24:49;;;;;;;8.77;2.78;;;;;;;8.35;66.70;100748.41;10477439;28;20418;-65
2024/01/26 03:29:51;;;;;;;6.90;2.83;;;;;;;8.30;66.46;100747.75;10477391;28;20048;-65
2024/01/26 03:34:53;;;;;;;6.45;2.83;;;;;;;8.28;66.58;100746.09;10477268;28;20102;-65
2024/01/26 03:39:55;;;;;;;5.78;2.58;;;;;;;8.19;66.54;100741.22;10486380;28;20032;-65
2024/01/26 03:44:57;;;;;;;4.95;2.83;;;;;;;8.10;66.85;100746.75;10478666;28;20048;-66
2024/01/26 03:49:59;;;;;;;41.22;3.40;;;;;;;7.81;67.58;100739.97;10459170;28;20047;-65
2024/01/26 03:55:01;;;;;;;8.18;3.58;;;;;;;7.62;68.12;100760.59;10458643;28;20040;-65
2024/01/26 04:00:04;;;;;;;7.07;3.20;;;;;;;7.69;67.97;100756.84;10486461;28;20040;-65
2024/01/26 04:05:13;;;;;;;15.25;4.63;;;;;;;7.76;68.05;100762.72;10480797;28;20044;-65
2024/01/26 04:10:15;;;;;;;8.35;3.58;;;;;;;7.85;67.92;100755.41;10483733;28;20679;-65
2024/01/26 04:15:17;;;;;;;9.23;3.13;;;;;;;7.96;67.90;100761.09;10502708;27;20124;-64
2024/01/26 04:20:19;;;;;;;7.45;3.53;;;;;;;8.05;67.88;100744.28;10464668;28;20044;-65
2024/01/26 04:25:21;;;;;;;6.45;2.67;;;;;;;8.17;68.07;100748.22;10487554;28;20097;-63
2024/01/26 04:30:23;;;;;;;4.57;2.50;;;;;;;8.43;67.83;100751.56;10465359;28;20364;-63
2024/01/26 04:35:25;;;;;;;8.63;2.47;;;;;;;8.62;67.52;100739.53;10481465;28;20053;-64
2024/01/26 04:40:27;;;;;;;3.10;1.80;;;;;;;8.78;67.46;100734.56;10490377;28;20044;-63
2024/01/26 04:45:29;;;;;;;2.65;1.60;;;;;;;8.88;67.43;100732.41;10484381;28;20048;-63
2024/01/26 04:50:31;;;;;;;3.67;1.60;;;;;;;8.91;67.38;100727.94;10491775;28;20072;-65
2024/01/26 04:55:33;;;;;;;2.40;1.33;;;;;;;8.94;67.28;100714.78;10481874;28;20464;-63
2024/01/26 05:00:35;;;;;;;2.97;1.50;;;;;;;9.02;67.37;100693.56;10482849;28;20067;-64
2024/01/26 05:05:37;;;;;;;1.67;1.20;;;;;;;9.01;67.39;100692.75;10483741;28;20041;-63
2024/01/26 05:10:39;;;;;;;6.15;2.45;;;;;;;8.78;67.14;100678.03;10441902;28;20033;-63
2024/01/26 05:15:41;;;;;;;3.92;2.03;;;;;;;8.58;67.61;100680.59;10440960;28;20497;-66
2024/01/26 05:20:43;;;;;;;2.97;1.70;;;;;;;8.70;67.66;100676.63;10439648;28;20049;-64
2024/01/26 05:25:45;;;;;;;4.90;1.35;;;;;;;8.74;67.54;100678.22;10440913;28;20090;-64
2024/01/26 05:30:47;;;;;;;1.48;1.10;;;;;;;8.69;67.88;100681.00;10439654;28;20060;-64
2024/01/26 05:35:49;;;;;;;2.17;1.35;;;;;;;8.61;68.24;100667.44;10442934;28;20610;-64
2024/01/26 05:40:51;;;;;;;2.55;1.20;;;;;;;8.61;68.25;100684.81;10423349;28;20052;-64
2024/01/26 05:45:53;;;;;;;1.70;1.10;;;;;;;8.63;68.50;100680.38;10439724;28;20060;-64
2024/01/26 05:50:55;;;;;;;1.15;1.02;;;;;;;8.69;69.11;100681.00;10438695;28;20183;-64
2024/01/26 05:56:00;;;;;;;1.33;1.00;;;;;;;8.88;68.87;100678.50;10439077;28;20064;-63
2024/01/26 06:01:02;;;;;;;1.92;1.30;;;;;;;9.05;68.54;100678.66;10437440;28;20156;-64
2024/01/26 06:06:04;;;;;;;2.00;1.20;;;;;;;9.08;68.68;100682.88;10438752;28;20037;-64
2024/01/26 06:11:07;;;;;;;1.20;1.10;;;;;;;9.18;68.54;100692.88;10473090;28;20135;-66
2024/01/26 06:16:15;;;;;;;1.67;0.88;;;;;;;9.27;68.63;100683.81;10478907;28;20163;-64
2024/01/26 06:21:17;;;;;;;1.42;0.90;;;;;;;9.40;68.19;100675.38;10478791;28;20044;-65
2024/01/26 06:26:20;;;;;;;1.42;0.95;;;;;;;9.48;68.15;100652.41;10477119;28;20041;-65
2024/01/26 06:31:26;;;;;;;1.40;1.10;;;;;;;9.45;67.87;100633.44;10486710;28;20468;-66
2024/01/26 06:36:27;;;;;;;1.80;1.10;;;;;;;9.41;67.98;100658.81;10480039;28;20048;-65
2024/01/26 06:41:29;;;;;;;2.00;1.23;;;;;;;9.35;67.75;100653.00;10482683;28;20459;-65
2024/01/26 06:46:31;;;;;;;0.80;0.80;;;;;;;9.34;67.74;100660.00;10482340;28;20044;-65
2024/01/26 06:51:34;;;;;;;0.73;0.70;;;;;;;9.34;67.79;100657.38;10482262;28;20159;-65
2024/01/26 06:56:35;;;;;;;0.80;0.77;;;;;;;9.41;67.70;100648.38;10481939;28;20579;-65
2024/01/26 07:01:38;;;;;;;0.60;0.60;;;;;;;9.49;67.62;100624.53;10487725;28;20411;-64
2024/01/26 07:06:40;;;;;;;0.82;0.68;;;;;;;9.54;67.51;100639.06;10477014;28;20309;-65
2024/01/26 07:11:42;;;;;;;0.80;0.60;;;;;;;9.60;67.33;100628.38;10480251;28;20133;-67
2024/01/26 07:16:44;;;;;;;3.50;0.98;;;;;;;9.51;67.29;100597.44;10474825;28;20459;-67
2024/01/26 07:21:46;;;;;;;2.35;1.17;;;;;;;9.39;67.31;100574.50;10462965;28;20037;-65
2024/01/26 07:26:48;;;;;;;1.38;1.02;;;;;;;9.30;67.59;100554.03;10478958;28;20047;-64
2024/01/26 07:31:50;;;;;;;3.08;1.10;;;;;;;9.38;67.13;100582.41;10476723;28;20048;-64
2024/01/26 07:36:52;;;;;;;3.90;1.00;;;;;;;9.45;67.08;100575.97;10461026;28;20052;-66
2024/01/26 07:41:54;;;;;;;1.92;1.10;;;;;;;9.52;67.13;100580.84;10468826;28;20083;-66
2024/01/26 07:46:56;;;;;;;1.52;0.90;;;;;;;9.56;66.98;100589.41;10487072;28;20643;-67
2024/01/26 07:51:58;;;;;;;0.88;0.85;;;;;;;9.46;67.02;100599.41;10485526;28;20059;-66
2024/01/26 07:57:00;;;;;;;1.85;1.25;;;;;;;9.48;67.23;100586.31;10484298;28;20044;-66
2024/01/26 08:02:03;;;;;;;1.30;1.02;;;;;;;9.49;67.36;100572.31;10486483;28;20455;-66
2024/01/26 08:07:05;;;;;;;1.95;1.08;;;;;;;9.59;67.20;100576.22;10497654;28;20076;-66
2024/01/26 08:12:07;;;;;;;4.07;1.15;;;;;;;9.60;67.25;100555.28;10482451;28;20040;-67
2024/01/26 08:17:13;;;;;;;1.33;0.93;;;;;;;9.73;67.27;100552.13;10481225;28;20079;-66
2024/01/26 08:22:16;;;;;;;2.83;1.25;;;;;;;9.77;67.43;100540.63;10480952;28;20059;-66
2024/01/26 08:27:18;;;;;;;0.90;0.90;;;;;;;9.88;67.12;100543.56;10480514;28;20049;-66
2024/01/26 08:32:20;;;;;;;1.33;0.90;;;;;;;9.75;67.48;100526.78;10483263;28;20416;-65
2024/01/26 08:37:23;;;;;;;1.05;0.80;;;;;;;9.76;67.56;100518.00;10481633;28;20131;-67
2024/01/26 08:42:26;;;;;;;1.98;1.15;;;;;;;9.85;67.38;100525.44;10481991;28;20052;-65
2024/01/26 08:47:27;;;;;;;1.35;1.10;;;;;;;9.82;67.41;100509.88;10480800;28;20059;-65
2024/01/26 08:52:31;;;;;;;2.05;0.80;;;;;;;9.81;67.53;100505.59;10479097;28;20052;-66
2024/01/26 08:57:33;;;;;;;1.38;1.10;;;;;;;9.88;67.48;100515.66;10482148;28;20105;-66
2024/01/26 09:02:36;;;;;;;1.08;1.00;;;;;;;9.91;67.59;100506.84;10480172;28;20536;-65
2024/01/26 09:07:38;;;;;;;1.65;0.93;;;;;;;9.79;67.61;100505.66;10483688;28;20048;-66
2024/01/26 09:12:40;;;;;;;3.97;2.20;;;;;;;9.84;67.61;100523.72;10479328;28;20389;-66
2024/01/26 09:17:42;;;;;;;2.72;1.50;;;;;;;9.98;67.55;100516.94;10483548;28;20036;-66
2024/01/26 09:22:44;;;;;;;2.15;1.40;;;;;;;9.91;67.80;100512.91;10460927;28;20043;-65
2024/01/26 09:27:46;;;;;;;2.00;1.52;;;;;;;9.91;68.28;100514.69;10461019;28;20044;-67
2024/01/26 09:32:48;;;;;;;1.77;1.20;;;;;;;9.86;68.41;100533.19;10479885;28;20144;-69
2024/01/26 09:37:50;;;;;;;1.60;1.10;;;;;;;9.85;68.46;100520.19;10493109;27;20064;-68
2024/01/26 09:42:53;;;;;;;1.48;1.00;;;;;;;9.78;68.96;100524.88;10478838;28;20040;-68
2024/01/26 09:47:55;;;;;;;0.95;0.90;;;;;;;9.78;69.47;100514.41;10462199;28;20223;-68
2024/01/26 09:52:58;;;;;;;0.93;0.73;;;;;;;9.76;69.49;100510.19;10480375;28;20494;-69
2024/01/26 09:58:00;;;;;;;0.95;0.90;;;;;;;9.82;69.55;100509.88;10494262;27;20084;-68
2024/01/26 10:03:02;;;;;;;1.42;0.82;;;;;;;9.91;69.53;100520.72;10475804;28;20068;-68
2024/01/26 10:08:10;;;;;;;0.73;0.68;;;;;;;9.98;69.64;100510.84;10474325;28;20052;-68
2024/01/26 10:13:13;;;;;;;1.52;0.77;;;;;;;10.06;69.59;100504.34;10477413;28;20207;-68
2024/01/26 10:18:15;;;;;;;1.48;0.70;;;;;;;10.14;69.38;100490.88;10475591;28;20056;-68
2024/01/26 10:23:17;;;;;;;1.13;0.80;;;;;;;10.02;70.01;100494.09;10475956;28;20522;-68
2024/01/26 10:28:20;;;;;;;1.17;0.77;;;;;;;10.17;69.73;100495.97;10477358;28;20056;-68
2024/01/26 10:33:23;;;;;;;1.13;0.70;;;;;;;10.23;69.68;100506.13;10474716;28;20044;-69
2024/01/26 10:38:31;;;;;;;0.88;0.45;;;;;;;10.34;69.51;100506.44;10473301;28;20055;-68
2024/01/26 10:43:33;;;;;;;0.88;0.80;;;;;;;10.54;69.13;100495.84;10477260;28;20047;-68
2024/01/26 10:48:35;;;;;;;1.13;0.80;;;;;;;10.60;68.56;100499.91;10473049;28;21095;-68
2024/01/26 10:53:43;;;;;;;2.42;0.50;;;;;;;10.54;68.69;100482.75;10467754;28;20044;-68
2024/01/26 10:58:45;;;;;;;0.50;0.50;;;;;;;10.85;68.27;100477.63;10472005;28;20048;-68
2024/01/26 11:03:47;;;;;;;0.50;0.50;;;;;;;10.94;68.26;100481.53;10472930;28;20039;-69
2024/01/26 11:08:50;;;;;;;0.50;0.50;;;;;;;11.10;67.64;100464.97;10474173;28;20057;-68
2024/01/26 11:14:01;;;;;;;0.98;0.93;;;;;;;11.08;67.55;100458.13;10476864;28;20127;-68
2024/01/26 11:19:04;;;;;;;0.40;0.40;;;;;;;11.25;67.18;100447.59;10490936;28;20051;-69
2024/01/26 11:24:12;;;;;;;0.88;0.70;;;;;;;11.21;66.55;100446.91;10474229;28;20047;-69
2024/01/26 11:29:14;;;;;;;0.57;0.57;;;;;;;11.50;66.63;100437.47;10482559;28;20097;-69
2024/01/26 11:34:20;;;;;;;0.55;0.55;;;;;;;11.91;65.83;100435.97;10475172;28;20041;-69
2024/01/26 11:39:24;;;;;;;0.65;0.65;;;;;;;11.85;65.11;100422.38;10476869;28;20067;-69
2024/01/26 11:44:30;;;;;;;0.63;0.50;;;;;;;11.92;65.30;100431.59;10475462;28;20456;-70
2024/01/26 11:49:32;;;;;;;0.47;0.47;;;;;;;12.03;65.05;100423.94;10477234;28;20040;-69
2024/01/26 11:54:35;;;;;;;0.52;0.50;;;;;;;12.14;64.80;100418.94;10474612;28;20139;-69
2024/01/26 11:59:37;;;;;;;0.30;0.30;;;;;;;11.93;64.82;100421.00;10473443;28;20052;-69
2024/01/26 12:04:39;;;;;;;0.90;0.63;;;;;;;12.01;64.95;100407.44;10473501;28;20090;-69
2024/01/26 12:09:42;;;;;;;0.60;0.60;;;;;;;12.20;64.33;100396.72;10475200;28;20048;-69
2024/01/26 12:14:44;;;;;;;0.30;0.30;;;;;;;12.07;64.65;100388.75;10478815;28;20499;-69
2024/01/26 12:19:47;;;;;;;0.30;0.30;;;;;;;12.19;64.32;100398.53;10476292;28;20063;-69
2024/01/26 12:24:50;;;;;;;0.50;0.50;;;;;;;12.12;64.60;100398.03;10477008;28;20106;-69
2024/01/26 12:29:52;;;;;;;1.63;0.80;;;;;;;12.08;65.02;100393.06;10463189;28;20496;-69
2024/01/26 12:34:54;;;;;;;0.35;0.35;;;;;;;11.80;65.41;100419.19;10481490;28;20040;-69
2024/01/26 12:39:56;;;;;;;1.25;0.60;;;;;;;11.86;65.60;100445.03;10482179;28;20056;-69
2024/01/26 12:44:58;;;;;;;0.57;0.57;;;;;;;11.88;65.77;100461.53;10480457;28;20492;-68
2024/01/26 12:50:01;;;;;;;0.70;0.57;;;;;;;11.53;67.09;100509.78;10464006;28;20052;-69
2024/01/26 12:55:03;;;;;;;0.75;0.57;;;;;;;10.88;62.43;100561.22;10477284;28;20037;-68
2024/01/26 13:00:06;;;;;;;1.77;0.70;;;;;;;10.66;63.11;100604.22;10463614;28;20047;-68
2024/01/26 13:05:08;;;;;;;1.67;0.82;;;;;;;10.20;63.42;100589.91;10479816;28;20103;-69
2024/01/26 13:10:11;;;;;;;1.95;0.85;;;;;;;9.85;63.06;100629.94;10478743;28;20084;-68
2024/01/26 13:15:13;;;;;;;0.70;0.70;;;;;;;9.98;63.04;100628.44;10478584;28;20048;-69
2024/01/26 13:20:16;;;;;;;1.25;1.00;;;;;;;10.00;61.57;100639.66;10479499;28;20417;-68
2024/01/26 13:25:21;;;;;;;0.75;0.60;;;;;;;9.82;60.47;100620.47;10482147;28;20036;-68
2024/01/26 13:30:26;;;;;;;0.70;0.70;;;;;;;9.71;59.65;100606.19;10480678;28;20052;-69
2024/01/26 13:35:30;;;;;;;5.25;1.35;;;;;;;9.67;59.24;100638.59;10468192;28;20042;-68
2024/01/26 13:40:32;;;;;;;1.58;0.80;;;;;;;9.69;58.26;100642.81;10481113;28;20044;-69
2024/01/26 13:45:34;;;;;;;0.82;0.82;;;;;;;9.68;57.62;100630.69;10460599;28;20048;-68
2024/01/26 13:50:38;;;;;;;0.70;0.70;;;;;;;9.86;57.13;100655.13;10483564;28;20045;-68
2024/01/26 13:55:40;;;;;;;1.98;0.80;;;;;;;9.76;53.66;100652.09;10477056;28;20524;-69
2024/01/26 14:00:44;;;;;;;1.45;0.82;;;;;;;9.78;53.81;100659.84;10478389;28;20029;-69
2024/01/26 14:05:46;;;;;;;1.65;1.00;;;;;;;9.84;53.90;100676.09;10477170;28;20040;-69
2024/01/26 14:10:49;;;;;;;1.08;0.75;;;;;;;9.72;51.38;100702.75;10479159;28;20052;-69
2024/01/26 14:15:51;;;;;;;0.60;0.60;;;;;;;9.66;51.88;100726.53;10475855;28;20040;-67
2024/01/26 14:20:53;;;;;;;0.95;0.77;;;;;;;9.44;49.23;100750.06;10458561;28;20129;-67
2024/01/26 14:25:56;;;;;;;0.52;0.43;;;;;;;9.12;48.07;100768.81;10475243;28;20050;-67
2024/01/26 14:30:58;;;;;;;0.57;0.40;;;;;;;9.04;48.19;100776.09;10475922;28;20075;-69
2024/01/26 14:36:00;;;;;;;1.88;0.73;;;;;;;8.90;46.24;100791.47;10475293;28;20055;-69
2024/01/26 14:41:02;;;;;;;3.20;0.63;;;;;;;8.72;45.69;100803.47;10475124;28;20107;-69
2024/01/26 14:46:06;;;;;;;4.45;0.95;;;;;;;8.68;47.75;100814.06;10472472;28;20581;-69
2024/01/26 14:51:08;;;;;;;1.55;0.80;;;;;;;8.67;47.40;100851.47;10473569;28;20044;-70
2024/01/26 14:56:10;;;;;;;1.52;0.90;;;;;;;8.76;47.67;100857.22;10474877;28;20044;-69
2024/01/26 15:01:12;;;;;;;2.42;0.95;;;;;;;8.65;47.46;100882.81;10475466;28;20094;-69
2024/01/26 15:06:15;;;;;;;1.13;0.93;;;;;;;8.64;48.33;100902.00;10473970;28;20409;-69
2024/01/26 15:11:18;;;;;;;3.38;0.95;;;;;;;8.36;48.37;100913.47;10475912;28;20056;-69
2024/01/26 15:16:20;;;;;;;0.70;0.63;;;;;;;8.37;48.91;100939.47;10477087;28;20801;-69
2024/01/26 15:21:22;;;;;;;2.65;0.98;;;;;;;8.17;48.18;100946.25;10478271;28;20399;-69
2024/01/26 15:26:25;;;;;;;2.95;0.80;;;;;;;8.20;49.70;100957.41;10476658;28;20056;-67
2024/01/26 15:31:27;;;;;;;2.72;1.02;;;;;;;8.17;49.31;100987.94;10475864;28;20033;-67
2024/01/26 15:36:30;;;;;;;2.67;1.50;;;;;;;8.05;49.80;100999.59;10481789;28;20048;-67
2024/01/26 15:41:32;;;;;;;3.08;1.35;;;;;;;8.02;51.14;101000.53;10460107;28;20156;-66
2024/01/26 15:46:36;;;;;;;4.05;1.17;;;;;;;7.96;51.43;101003.34;10480595;28;20048;-67
2024/01/26 15:51:38;;;;;;;4.63;1.42;;;;;;;7.90;51.68;101018.31;10479869;28;20040;-67
2024/01/26 15:56:40;;;;;;;4.55;1.27;;;;;;;7.76;51.72;101021.34;10476837;28;20045;-67
2024/01/26 16:01:43;;;;;;;1.50;1.10;;;;;;;7.67;52.23;101039.84;10483071;28;20047;-68
2024/01/26 16:06:45;;;;;;;5.47;1.25;;;;;;;7.56;52.46;101044.53;10491189;28;20051;-67
2024/01/26 16:11:51;;;;;;;2.10;0.82;;;;;;;7.43;52.48;101050.13;10465870;28;20453;-67
2024/01/26 16:16:54;;;;;;;1.83;0.85;;;;;;;7.45;52.75;101064.00;10484309;28;20052;-69
2024/01/26 16:21:57;;;;;;;3.05;1.08;;;;;;;7.47;52.63;101078.63;10482612;28;20057;-68
2024/01/26 16:26:59;;;;;;;1.30;0.90;;;;;;;7.31;52.60;101090.38;10486066;28;20051;-68
2024/01/26 16:32:01;;;;;;;4.45;1.10;;;;;;;7.24;52.81;101107.06;10483582;28;20427;-67
2024/01/26 16:37:03;;;;;;;2.25;1.30;;;;;;;7.13;52.54;101127.31;10487821;28;20056;-68
2024/01/26 16:42:05;;;;;;;5.13;1.60;;;;;;;7.09;53.01;101138.69;10488248;28;20051;-68
2024/01/26 16:47:07;;;;;;;1.23;0.80;;;;;;;7.04;52.92;101151.00;10484649;28;20500;-68
2024/01/26 16:52:10;;;;;;;4.22;1.17;;;;;;;6.88;52.90;101152.25;10488084;28;20507;-67
2024/01/26 16:57:12;;;;;;;3.72;1.10;;;;;;;6.77;52.11;101172.47;10470161;28;20548;-68
2024/01/26 17:02:14;;;;;;;2.70;1.02;;;;;;;6.59;52.29;101184.19;10466760;28;20055;-68
2024/01/26 17:07:16;;;;;;;1.88;1.17;;;;;;;6.68;52.63;101198.69;10487311;28;20193;-68
2024/01/26 17:12:18;;;;;;;3.60;1.10;;;;;;;6.57;52.40;101204.13;10467173;28;20040;-68
2024/01/26 17:17:22;;;;;;;5.28;1.33;;;;;;;6.59;52.03;101211.91;10481858;28;20050;-69
2024/01/26 17:22:23;;;;;;;7.35;1.92;;;;;;;6.51;52.83;101216.44;10485472;28;20041;-68
2024/01/26 17:27:25;;;;;;;0.90;0.73;;;;;;;6.56;52.54;101237.94;10481100;28;20097;-68
2024/01/26 17:32:29;;;;;;;2.60;1.13;;;;;;;6.63;52.64;101248.19;10484668;28;20140;-67
2024/01/26 17:37:32;;;;;;;2.42;1.08;;;;;;;6.66;52.82;101255.91;10456869;28;20072;-68
2024/01/26 17:42:34;;;;;;;7.28;1.30;;;;;;;6.74;52.63;101273.94;10461867;28;20037;-68
2024/01/26 17:47:36;;;;;;;1.35;1.10;;;;;;;6.91;52.78;101290.00;10483538;28;20135;-68
2024/01/26 17:52:38;;;;;;;5.28;1.40;;;;;;;6.99;52.60;101311.50;10483686;28;20135;-68
2024/01/26 17:57:40;;;;;;;6.15;1.15;;;;;;;7.08;52.52;101325.13;10482181;28;20125;-68
2024/01/26 18:02:42;;;;;;;1.70;1.15;;;;;;;7.20;52.29;101319.63;10484088;28;20072;-68
2024/01/26 18:07:44;;;;;;;7.32;1.80;;;;;;;7.23;52.16;101325.66;10484238;28;20048;-68
2024/01/26 18:12:46;;;;;;;1.45;0.98;;;;;;;7.21;52.46;101343.91;10480588;28;20040;-68
2024/01/26 18:17:48;;;;;;;6.45;1.63;;;;;;;7.20;52.49;101360.44;10459237;28;20643;-69
2024/01/26 18:22:50;;;;;;;3.67;1.40;;;;;;;7.17;52.24;101373.50;10477916;28;20041;-68
2024/01/26 18:27:52;;;;;;;4.05;1.58;;;;;;;7.16;52.31;101375.22;10491855;27;20052;-69
2024/01/26 18:32:54;;;;;;;5.88;1.67;;;;;;;7.07;52.34;101396.28;10476334;28;20043;-68
2024/01/26 18:37:56;;;;;;;5.53;1.67;;;;;;;7.12;52.47;101403.97;10457314;28;21080;-69
2024/01/26 18:42:59;;;;;;;4.90;1.50;;;;;;;7.11;52.36;101413.53;10475575;28;20127;-69
2024/01/26 18:48:01;;;;;;;1.65;0.90;;;;;;;7.17;52.01;101438.53;10474142;28;20080;-68
2024/01/26 18:53:03;;;;;;;1.67;0.98;;;;;;;7.18;52.27;101441.09;10476021;28;20052;-68
2024/01/26 18:58:05;;;;;;;2.50;1.35;;;;;;;7.25;52.19;101452.25;10491836;27;20049;-68
2024/01/26 19:03:08;;;;;;;2.80;1.30;;;;;;;7.29;52.29;101448.66;10474565;28;20946;-69
2024/01/26 19:08:10;;;;;;;4.15;1.98;;;;;;;7.14;52.46;101459.44;10477231;28;20066;-68
2024/01/26 19:13:12;;;;;;;4.55;1.65;;;;;;;6.98;52.11;101468.41;10459530;28;20093;-68
2024/01/26 19:18:17;;;;;;;3.67;1.33;;;;;;;6.91;52.36;101466.84;10458056;28;20414;-69
2024/01/26 19:23:20;;;;;;;3.88;1.33;;;;;;;6.95;52.46;101469.38;10474260;28;20867;-68
2024/01/26 19:28:22;;;;;;;3.25;1.17;;;;;;;6.92;52.27;101472.00;10457860;28;20503;-68
2024/01/26 19:33:24;;;;;;;5.20;1.80;;;;;;;6.92;52.11;101485.00;10479847;28;20074;-65
2024/01/26 19:38:27;;;;;;;6.38;1.40;;;;;;;6.89;52.44;101492.91;10488177;28;20051;-67
2024/01/26 19:43:30;;;;;;;3.72;1.17;;;;;;;6.89;52.44;101505.03;10490323;28;20134;-67
2024/01/26 19:48:32;;;;;;;2.53;1.23;;;;;;;6.79;52.04;101508.72;10471386;28;20072;-65
2024/01/26 19:53:36;;;;;;;5.47;1.23;;;;;;;6.62;52.55;101515.94;10477772;28;20035;-66
2024/01/26 19:58:38;;;;;;;5.82;1.70;;;;;;;6.68;52.66;101511.50;10480041;28;20072;-65
2024/01/26 20:03:43;;;;;;;6.30;1.95;;;;;;;6.74;52.57;101516.59;10479637;28;20129;-64
2024/01/26 20:08:46;;;;;;;5.90;1.65;;;;;;;6.61;52.64;101522.06;10479010;28;20080;-67
2024/01/26 20:13:48;;;;;;;3.03;1.30;;;;;;;6.63;52.64;101528.94;10478049;28;20044;-65
2024/01/26 20:18:50;;;;;;;5.72;2.40;;;;;;;6.72;52.64;101540.91;10458196;28;20049;-66
2024/01/26 20:23:53;;;;;;;7.65;2.35;;;;;;;6.86;52.65;101550.16;10477446;28;20048;-66
2024/01/26 20:28:56;;;;;;;5.57;1.83;;;;;;;6.82;52.06;101558.03;10442963;28;20049;-66
2024/01/26 20:33:59;;;;;;;7.00;2.58;;;;;;;6.89;52.53;101562.25;10493125;28;20048;-66
2024/01/26 20:39:01;;;;;;;7.43;1.83;;;;;;;6.86;52.55;101572.69;10457802;28;20056;-66
2024/01/26 20:44:03;;;;;;;6.13;1.88;;;;;;;6.81;52.39;101562.41;10458714;28;20052;-66
2024/01/26 20:49:05;;;;;;;4.47;1.50;;;;;;;6.74;52.38;101557.31;10483448;28;20543;-67
2024/01/26 20:54:07;;;;;;;11.52;1.48;;;;;;;6.77;52.56;101562.47;10484114;28;20230;-67
2024/01/26 20:59:09;;;;;;;4.38;1.70;;;;;;;6.78;52.45;101567.66;10487400;28;20539;-66
2024/01/26 21:04:11;;;;;;;6.25;2.15;;;;;;;6.69;52.76;101574.75;10487710;28;20044;-66
2024/01/26 21:09:13;;;;;;;4.30;1.63;;;;;;;6.78;52.50;101584.97;10468889;28;20074;-66
2024/01/26 21:14:15;;;;;;;4.70;1.85;;;;;;;6.77;52.54;101593.69;10487157;28;20048;-66
2024/01/26 21:19:19;;;;;;;2.60;1.38;;;;;;;6.77;52.69;101598.88;10465220;28;20145;-66
2024/01/26 21:24:21;;;;;;;6.75;1.73;;;;;;;6.78;51.91;101592.78;10490654;28;20049;-66
2024/01/26 21:29:23;;;;;;;6.50;1.48;;;;;;;6.77;52.43;101599.75;10479349;28;20047;-67
2024/01/26 21:34:26;;;;;;;3.25;1.20;;;;;;;6.76;52.26;101603.22;10464308;28;20040;-67
2024/01/26 21:39:29;;;;;;;3.65;1.50;;;;;;;6.78;52.44;101616.19;10461810;28;20076;-67
2024/01/26 21:44:31;;;;;;;3.60;1.40;;;;;;;6.80;52.37;101625.69;10483908;28;20127;-67
2024/01/26 21:49:34;;;;;;;4.03;1.52;;;;;;;6.71;52.39;101630.19;10471750;28;20032;-67
2024/01/26 21:54:37;;;;;;;3.45;1.60;;;;;;;6.62;52.51;101628.59;10488359;28;20048;-66
2024/01/26 21:59:39;;;;;;;6.85;1.60;;;;;;;6.61;52.43;101624.31;10494850;28;20044;-66
2024/01/26 22:04:41;;;;;;;3.75;1.50;;;;;;;6.48;52.08;101627.09;10487515;28;20405;-67
2024/01/26 22:09:46;;;;;;;4.88;1.27;;;;;;;6.53;52.04;101633.94;10488156;28;20532;-66
2024/01/26 22:14:48;;;;;;;5.05;1.20;;;;;;;6.44;51.96;101634.09;10487335;28;21108;-67
2024/01/26 22:19:50;;;;;;;5.22;1.77;;;;;;;6.47;52.29;101636.63;10491382;28;20079;-65
2024/01/26 22:24:52;;;;;;;7.25;1.25;;;;;;;6.54;52.23;101645.19;10506267;28;20052;-64
2024/01/26 22:29:55;;;;;;;4.65;1.63;;;;;;;6.50;52.10;101661.72;10492466;28;20053;-64
2024/01/26 22:34:57;;;;;;;3.03;1.20;;;;;;;6.44;52.15;101662.69;10493570;28;20080;-65
2024/01/26 22:40:00;;;;;;;5.28;1.50;;;;;;;6.49;52.27;101671.25;10504139;28;20044;-64
2024/01/26 22:45:04;;;;;;;4.15;1.42;;;;;;;6.47;52.13;101667.00;10486940;28;20080;-64
2024/01/26 22:50:06;;;;;;;8.55;1.90;;;;;;;6.45;52.16;101673.94;10466200;28;20054;-64
2024/01/26 22:55:08;;;;;;;5.05;1.52;;;;;;;6.31;52.31;101675.00;10485300;28;20509;-64
2024/01/26 23:00:18;;;;;;;5.03;1.30;;;;;;;6.30;52.59;101691.50;10484138;28;20416;-64
2024/01/26 23:05:21;;;;;;;;;;;;;;;6.18;52.68;101689.03;10490694;28;20946;-65
2024/01/26 23:10:24;;;;;;;5.55;1.42;;;;;;;6.09;52.73;101685.69;10489209;28;20379;-64
2024/01/26 23:15:26;;;;;;;3.42;1.20;;;;;;;6.08;53.00;101689.16;10485162;28;20511;-65
2024/01/26 23:20:29;;;;;;;4.00;1.60;;;;;;;6.10;52.79;101688.25;10458877;28;20064;-65
2024/01/26 23:25:30;;;;;;;4.97;1.10;;;;;;;6.17;53.04;101695.09;10485111;28;20032;-65